X

Important NEWS



New Hub Active

Miami is our new hub! Old members can request transfer via hr@dlxairways.net

Thank you very much and have nice flight.


Deluxe Airways.

X

Tours



Hello again, we created one nice test tour for all pilots to attend. also this is ment to be testing of our tour system

Available Tours

If you find some issues please inform us.

Thank you very much and have nice flight.


Deluxe Airways.

 METAR AND TAF INFORMATION
ArrayMETAR FOR LWOH
94734030 5 LWOH 231300Z 14008KT 9999 FEW050 15/M05 Q1020 LWOH 2019-03-23T13:00:00Z 41.18 20.75 15.0 -5.0 140 8 6.21 30.11811 VFR METAR 761.0 LWOH 231230Z 14008KT CAVOK 14/M05 Q1021 LWOH 2019-03-23T12:30:00Z 41.18 20.75 14.0 -5.0 140 8 6.21 30.147638 VFR METAR 761.0 LWOH 231200Z 14008KT CAVOK 13/M03 Q1022 LWOH 2019-03-23T12:00:00Z 41.18 20.75 13.0 -3.0 140 8 6.21 30.177166 VFR METAR 761.0 LWOH 231130Z 14007KT CAVOK 13/M01 Q1022 LWOH 2019-03-23T11:30:00Z 41.18 20.75 13.0 -1.0 140 7 6.21 30.177166 VFR METAR 761.0

 AIRPORT MAP

 RUNWAY INFORMATION
Runway 02 Runway length 8366 ft Runway width 140 ft
Runway elevation 2284 ft Runway displaced threshold 0 ft Runway heading 18
Runway 20 Runway length 8366 ft Runway width 140 ft
Runway elevation 2313 ft Runway displaced threshold 0 ft Runway heading 198

 AIRPORT FREQUENCIES
Type APP Name APP Frequency 119.2 MHZ
Type TWR Name TWR Frequency 119.2 MHZ

 AIRPORT NEAR NAVIGATION AIDS
Type NDB Name Ohrid Frequency 432 KHZ
Type VOR-DME Name Ohrid Frequency 112500 KHZ



Powered by Virtual Airlines Manager [v2.6.2]

Template code change by DeluxeAir